Time;durP1;ratioP1;P1;durP2;ratioP2;P2;SDS_P1;SDS_P2;PMS_P1;PMS_P2;Temp;Humidity;BMP_temperature;BMP_pressure;BME280_temperature;BME280_humidity;BME280_pressure;Samples;Min_cycle;Max_cycle;Signal;HPM_P1;HPM_P2
2023/07/04 00:01:04;;;;;;;5.10;3.33;;;;;;;21.23;54.40;93898.44;5054312;28;20048;-72
2023/07/04 00:03:30;;;;;;;5.45;3.13;;;;;;;21.24;54.62;93905.41;5055612;28;20048;-72
2023/07/04 00:05:56;;;;;;;4.35;3.45;;;;;;;21.19;54.78;93897.63;5055640;28;20052;-73
2023/07/04 00:08:26;;;;;;;4.38;3.47;;;;;;;21.14;54.71;93886.41;5052336;28;20132;-73
2023/07/04 00:10:56;;;;;;;6.97;3.58;;;;;;;21.27;54.57;93904.63;5055871;28;20030;-73
2023/07/04 00:13:22;;;;;;;4.28;3.45;;;;;;;21.26;54.35;93900.41;5053370;28;20024;-72
2023/07/04 00:15:50;;;;;;;5.18;3.30;;;;;;;21.21;54.41;93895.34;5049378;28;20071;-72
2023/07/04 00:18:20;;;;;;;3.95;2.95;;;;;;;21.17;54.69;93891.06;5055132;28;20037;-72
2023/07/04 00:20:54;;;;;;;4.32;3.83;;;;;;;21.15;54.29;93902.25;5052505;28;20041;-73
2023/07/04 00:23:25;;;;;;;3.70;3.35;;;;;;;21.19;54.60;93897.63;5054325;28;20039;-72
2023/07/04 00:25:52;;;;;;;7.38;4.13;;;;;;;21.16;54.95;93906.50;5054171;28;20401;-73
2023/07/04 00:28:18;;;;;;;4.65;3.45;;;;;;;21.18;54.81;93903.41;5055726;28;20017;-72
2023/07/04 00:30:44;;;;;;;3.60;3.28;;;;;;;21.05;54.87;93889.44;5052920;28;20024;-72
2023/07/04 00:33:10;;;;;;;6.90;3.70;;;;;;;20.96;55.19;93881.66;5055140;28;20109;-72
2023/07/04 00:35:36;;;;;;;6.90;3.60;;;;;;;20.96;55.26;93897.13;5051087;28;20052;-72
2023/07/04 00:38:01;;;;;;;7.00;3.85;;;;;;;20.98;55.28;93889.38;5054131;28;20036;-72
2023/07/04 00:40:27;;;;;;;3.95;3.40;;;;;;;20.99;55.48;93890.94;5048476;28;20028;-72
2023/07/04 00:43:02;;;;;;;4.28;3.55;;;;;;;20.80;55.79;93873.03;5056380;28;20443;-73
2023/07/04 00:45:28;;;;;;;4.20;3.38;;;;;;;20.91;55.97;93895.53;5053392;28;20059;-73
2023/07/04 00:48:00;;;;;;;4.50;3.60;;;;;;;20.81;56.00;93890.03;5051925;28;20032;-72
2023/07/04 00:50:35;;;;;;;5.40;3.72;;;;;;;20.79;55.85;93886.91;5053074;28;20167;-72
2023/07/04 00:53:02;;;;;;;;;;;;;;;20.74;55.84;93893.44;5053746;28;20048;-72
2023/07/04 00:55:30;;;;;;;3.95;3.50;;;;;;;20.60;56.36;93887.94;5052250;28;19982;-72
2023/07/04 00:57:55;;;;;;;4.65;3.20;;;;;;;20.61;56.46;93886.78;5052081;28;20044;-72
2023/07/04 01:00:23;;;;;;;3.72;3.15;;;;;;;20.68;56.01;93896.88;5051335;28;20519;-72
2023/07/04 01:03:03;;;;;;;4.20;3.15;;;;;;;20.64;56.10;93882.56;5054623;28;20353;-72
2023/07/04 01:05:40;;;;;;;3.30;2.97;;;;;;;20.63;55.99;93897.22;5053365;28;20131;-72
2023/07/04 01:08:18;;;;;;;4.03;3.50;;;;;;;20.55;55.75;93893.69;5054611;28;20047;-71
2023/07/04 01:10:46;;;;;;;5.82;3.20;;;;;;;20.52;55.81;93889.03;5054332;28;20013;-73
2023/07/04 01:13:35;;;;;;;4.57;3.30;;;;;;;20.57;56.02;93889.47;5053976;28;20024;-72
2023/07/04 01:16:02;;;;;;;3.63;3.20;;;;;;;20.50;56.56;93892.09;5046211;28;20068;-72
2023/07/04 01:18:28;;;;;;;4.65;3.72;;;;;;;20.49;56.43;93904.06;5054975;28;20044;-72
2023/07/04 01:20:54;;;;;;;4.40;4.00;;;;;;;20.42;56.16;93884.31;5055036;28;20051;-73
2023/07/04 01:23:33;;;;;;;5.45;3.63;;;;;;;20.50;56.46;93896.72;5053159;28;20032;-72
2023/07/04 01:26:30;;;;;;;4.28;3.60;;;;;;;20.52;56.45;93894.44;5053384;28;20062;-73
2023/07/04 01:28:56;;;;;;;3.25;2.95;;;;;;;19.65;56.34;93771.78;5053697;28;20028;-72
2023/07/04 01:31:25;;;;;;;7.30;3.42;;;;;;;20.44;56.67;93885.50;5054931;28;20023;-72
2023/07/04 01:33:51;;;;;;;4.50;3.95;;;;;;;20.46;56.59;93887.81;5053930;28;20043;-72
2023/07/04 01:36:20;;;;;;;4.75;4.20;;;;;;;20.47;56.39;93892.09;5051721;28;20109;-72
2023/07/04 01:38:46;;;;;;;7.13;3.72;;;;;;;20.41;56.50;93878.13;5052955;28;20064;-73
2023/07/04 01:41:12;;;;;;;4.00;3.60;;;;;;;20.48;56.66;93882.84;5052806;28;20127;-73
2023/07/04 01:43:38;;;;;;;4.05;3.45;;;;;;;20.50;56.08;93886.69;5053035;28;20444;-72
2023/07/04 01:46:03;;;;;;;4.30;3.30;;;;;;;20.50;56.05;93894.81;5050941;28;20040;-73
2023/07/04 01:48:29;;;;;;;4.72;3.38;;;;;;;20.42;56.03;93878.91;5052793;28;20033;-72
2023/07/04 01:50:54;;;;;;;4.43;3.58;;;;;;;20.48;55.86;93886.28;5052920;28;20045;-72
2023/07/04 01:53:20;;;;;;;5.72;3.03;;;;;;;20.54;55.80;93887.50;5051758;28;20041;-74
2023/07/04 01:55:45;;;;;;;4.60;3.60;;;;;;;20.47;55.68;93882.06;5052805;28;20484;-72
2023/07/04 01:58:11;;;;;;;4.80;3.00;;;;;;;20.48;55.57;93878.19;5052457;28;20062;-72
2023/07/04 02:00:38;;;;;;;3.72;2.88;;;;;;;20.42;55.75;93879.69;5054180;28;20043;-72
2023/07/04 02:03:04;;;;;;;3.92;3.13;;;;;;;20.52;55.68;93895.22;5052276;28;20102;-73
2023/07/04 02:05:29;;;;;;;3.65;3.20;;;;;;;20.41;56.13;93894.34;5052346;28;20029;-72
2023/07/04 02:07:54;;;;;;;3.97;3.53;;;;;;;20.39;56.18;93899.34;5050769;28;20477;-72
2023/07/04 02:10:20;;;;;;;4.22;3.30;;;;;;;20.27;56.48;93898.84;5052725;28;20032;-72
2023/07/04 02:12:46;;;;;;;3.72;2.95;;;;;;;20.18;56.39;93888.34;5053591;28;20036;-72
2023/07/04 02:15:11;;;;;;;4.18;3.67;;;;;;;20.17;56.64;93892.19;5053784;28;20148;-73
2023/07/04 02:17:37;;;;;;;4.20;3.50;;;;;;;20.23;56.66;93909.63;5051938;28;20040;-72
2023/07/04 02:20:04;;;;;;;4.20;3.80;;;;;;;20.17;56.53;93911.88;5053422;28;20044;-72
2023/07/04 02:22:29;;;;;;;6.38;3.10;;;;;;;20.18;56.69;93907.25;5049962;28;20043;-73
2023/07/04 02:24:55;;;;;;;4.68;3.60;;;;;;;20.16;56.83;93906.81;5053116;28;20534;-71
2023/07/04 02:27:20;;;;;;;5.38;4.00;;;;;;;20.12;57.00;93892.50;5052039;28;20041;-72
2023/07/04 02:29:47;;;;;;;4.20;3.15;;;;;;;20.10;56.93;93902.88;5052693;28;20032;-73
2023/07/04 02:32:12;;;;;;;6.53;3.75;;;;;;;19.99;57.17;93883.13;5051226;28;20061;-72
2023/07/04 02:34:38;;;;;;;5.30;4.15;;;;;;;20.07;56.92;93898.25;5053196;28;20043;-73
2023/07/04 02:37:03;;;;;;;5.65;3.35;;;;;;;20.06;57.21;93893.97;5051462;28;20040;-72
2023/07/04 02:39:30;;;;;;;3.95;3.35;;;;;;;20.03;57.07;93897.44;5051568;28;20046;-72
2023/07/04 02:41:55;;;;;;;4.18;3.55;;;;;;;20.03;57.19;93894.72;5052245;28;20033;-74
2023/07/04 02:44:20;;;;;;;4.93;3.65;;;;;;;19.96;57.13;93889.25;5051906;28;20063;-72
2023/07/04 02:46:46;;;;;;;6.72;3.78;;;;;;;19.98;57.22;93901.25;5051440;28;20535;-72
2023/07/04 02:49:11;;;;;;;7.40;3.78;;;;;;;19.97;57.20;93896.22;5053796;28;20573;-72
2023/07/04 02:51:37;;;;;;;4.13;3.38;;;;;;;19.80;57.43;93859.03;5049024;28;20571;-72
2023/07/04 02:54:02;;;;;;;5.50;3.50;;;;;;;19.89;57.29;93881.88;5052991;28;20033;-72
2023/07/04 02:56:28;;;;;;;4.18;3.35;;;;;;;19.85;57.44;93883.00;5051661;28;20033;-73
2023/07/04 02:58:54;;;;;;;3.50;3.03;;;;;;;19.78;57.69;93878.28;5052820;28;20655;-73
2023/07/04 03:01:19;;;;;;;4.70;3.67;;;;;;;19.75;57.53;93879.78;5051498;28;20572;-73
2023/07/04 03:03:44;;;;;;;5.53;3.67;;;;;;;19.71;57.53;93870.88;5052898;28;20039;-73
2023/07/04 03:06:10;;;;;;;3.90;3.38;;;;;;;19.73;57.52;93884.78;5050868;28;20067;-72
2023/07/04 03:08:35;;;;;;;4.32;3.33;;;;;;;19.81;57.65;93893.72;5051709;28;20037;-74
2023/07/04 03:11:01;;;;;;;6.18;4.15;;;;;;;19.75;57.54;93879.78;5066264;28;20533;-73
2023/07/04 03:13:26;;;;;;;4.70;3.90;;;;;;;19.86;57.43;93898.00;5053086;28;20024;-72
2023/07/04 03:15:52;;;;;;;4.07;3.63;;;;;;;19.66;57.90;93867.72;5051930;28;20056;-74
2023/07/04 03:18:17;;;;;;;4.13;3.42;;;;;;;19.30;58.01;93815.28;5055706;28;20040;-72
2023/07/04 03:20:42;;;;;;;5.93;4.60;;;;;;;19.78;57.98;93896.38;5050008;28;20132;-73
2023/07/04 03:23:08;;;;;;;5.13;3.65;;;;;;;19.73;58.33;93892.88;5051649;28;20046;-73
2023/07/04 03:25:33;;;;;;;5.43;3.63;;;;;;;19.61;58.38;93876.91;5052579;28;21249;-72
2023/07/04 03:27:59;;;;;;;5.63;3.75;;;;;;;19.64;58.42;93878.91;5052438;28;20037;-73
2023/07/04 03:30:24;;;;;;;5.35;3.60;;;;;;;19.67;58.50;93888.94;5051567;28;20392;-74
2023/07/04 03:32:50;;;;;;;5.50;4.15;;;;;;;19.72;58.53;93891.31;5052218;28;20079;-73
2023/07/04 03:35:15;;;;;;;6.43;4.95;;;;;;;19.74;58.74;93883.66;5051660;28;20075;-73
2023/07/04 03:37:40;;;;;;;7.00;4.28;;;;;;;19.68;59.02;93874.31;5051873;28;20451;-74
2023/07/04 03:40:10;;;;;;;6.30;5.00;;;;;;;19.74;58.99;93889.03;5050709;28;20119;-73
2023/07/04 03:42:37;;;;;;;6.72;4.63;;;;;;;19.74;59.09;93878.25;5051417;28;20083;-73
2023/07/04 03:45:03;;;;;;;5.70;5.10;;;;;;;19.88;59.45;93896.50;5051034;28;20041;-72
2023/07/04 03:47:29;;;;;;;5.38;4.68;;;;;;;19.95;59.55;93904.66;5048876;28;20043;-73
2023/07/04 03:49:54;;;;;;;9.50;6.03;;;;;;;19.99;60.28;93907.41;5049991;28;20052;-73
2023/07/04 03:52:20;;;;;;;8.43;5.72;;;;;;;20.01;60.03;93899.72;5050431;28;20086;-72
2023/07/04 03:54:45;;;;;;;7.68;6.35;;;;;;;20.08;59.89;93907.91;5050604;28;20063;-73
2023/07/04 03:57:11;;;;;;;9.77;6.03;;;;;;;20.06;60.29;93905.56;5052440;28;20044;-71
2023/07/04 03:59:36;;;;;;;9.55;5.80;;;;;;;20.15;60.08;93914.13;5051458;28;20041;-73
2023/07/04 04:02:05;;;;;;;8.45;6.82;;;;;;;20.22;60.08;93913.47;5045713;28;20037;-74
2023/07/04 04:04:36;;;;;;;9.40;6.50;;;;;;;20.26;59.75;93919.66;5050325;28;20036;-73
2023/07/04 04:07:02;;;;;;;12.65;7.15;;;;;;;20.24;59.35;93916.56;5051406;28;20029;-75
2023/07/04 04:09:27;;;;;;;11.77;6.32;;;;;;;20.20;59.51;93904.94;5050929;28;20064;-73
2023/07/04 04:11:53;;;;;;;7.60;6.80;;;;;;;20.33;59.44;93918.97;5052191;28;20652;-74
2023/07/04 04:14:18;;;;;;;8.15;6.50;;;;;;;20.30;58.91;93898.88;5050123;28;20541;-74
2023/07/04 04:16:44;;;;;;;10.65;6.68;;;;;;;20.37;58.81;93915.16;5048779;28;20028;-73
2023/07/04 04:19:09;;;;;;;9.88;6.97;;;;;;;20.32;59.16;93920.13;5049823;28;20028;-73
2023/07/04 04:21:34;;;;;;;11.25;6.90;;;;;;;20.36;59.32;93910.91;5051254;28;20035;-74
2023/07/04 04:24:00;;;;;;;7.68;6.20;;;;;;;20.51;59.11;93928.78;5050690;28;20686;-73
2023/07/04 04:26:25;;;;;;;10.15;6.55;;;;;;;20.53;59.32;93934.56;5052552;28;20036;-73
2023/07/04 04:28:53;;;;;;;10.55;7.57;;;;;;;20.57;58.82;93924.59;5051388;28;20475;-74
2023/07/04 04:31:18;;;;;;;8.50;7.15;;;;;;;20.57;58.48;93927.31;5052394;28;20879;-73
2023/07/04 04:33:44;;;;;;;9.30;7.95;;;;;;;20.58;58.42;93923.44;5053060;28;21651;-74
2023/07/04 04:36:09;;;;;;;12.70;7.93;;;;;;;20.53;58.48;93934.56;5053127;28;20033;-73
2023/07/04 04:38:36;;;;;;;11.00;7.95;;;;;;;20.22;59.73;93935.06;5052159;28;20050;-74
2023/07/04 04:41:06;;;;;;;9.65;7.07;;;;;;;20.40;60.10;93936.00;5054840;28;20029;-73
2023/07/04 04:43:35;;;;;;;13.18;8.00;;;;;;;20.47;60.62;93946.13;5048518;28;20635;-72
2023/07/04 04:46:01;;;;;;;12.40;9.18;;;;;;;20.58;59.20;93945.03;5053895;28;20040;-72
2023/07/04 04:48:35;;;;;;;13.15;8.07;;;;;;;20.59;59.21;93933.09;5052711;28;20788;-72
2023/07/04 04:51:10;;;;;;;15.20;8.23;;;;;;;20.78;58.83;93940.19;5052631;28;20049;-74
2023/07/04 04:53:41;;;;;;;10.45;8.05;;;;;;;20.92;59.41;93939.56;5053171;28;20024;-73
2023/07/04 04:56:08;;;;;;;13.73;8.40;;;;;;;20.77;57.87;93927.06;5054514;28;20452;-73
2023/07/04 04:58:35;;;;;;;15.02;8.70;;;;;;;20.84;58.73;93929.81;5054578;28;20028;-72
2023/07/04 05:01:17;;;;;;;14.88;8.80;;;;;;;20.87;58.08;93932.59;5051125;28;20086;-73
2023/07/04 05:03:43;;;;;;;12.32;8.35;;;;;;;20.96;58.78;93945.78;5054839;28;20040;-72
2023/07/04 05:06:08;;;;;;;12.52;8.57;;;;;;;20.95;58.21;93933.41;5054507;28;20033;-73
2023/07/04 05:08:34;;;;;;;13.82;8.63;;;;;;;21.05;57.92;93932.72;5053252;28;20032;-72
2023/07/04 05:11:06;;;;;;;9.32;7.93;;;;;;;21.32;58.29;93949.47;5052983;28;20052;-74
2023/07/04 05:13:33;;;;;;;13.07;8.10;;;;;;;21.32;56.90;93944.84;5053901;28;20017;-73
2023/07/04 05:16:03;;;;;;;16.05;8.65;;;;;;;21.43;57.84;93947.63;5052547;28;20036;-72
2023/07/04 05:18:30;;;;;;;15.48;8.85;;;;;;;21.43;57.02;93934.09;5053968;28;20055;-72
2023/07/04 05:21:05;;;;;;;11.30;8.77;;;;;;;21.58;56.81;93943.09;5053062;28;20024;-73
2023/07/04 05:23:33;;;;;;;14.00;8.73;;;;;;;21.73;57.71;93942.00;5053751;28;20078;-73
2023/07/04 05:26:01;;;;;;;12.65;8.40;;;;;;;21.86;56.58;93943.19;5052039;28;20027;-73
2023/07/04 05:28:27;;;;;;;16.23;9.05;;;;;;;21.80;56.11;93918.44;5053869;28;21123;-72
2023/07/04 05:31:04;;;;;;;11.73;8.43;;;;;;;21.99;55.49;93930.88;5051414;28;20036;-71
2023/07/04 05:33:30;;;;;;;14.10;9.00;;;;;;;22.06;56.32;93936.31;5050079;28;20155;-73
2023/07/04 05:36:02;;;;;;;16.08;8.52;;;;;;;22.11;55.77;93921.63;5055001;28;20040;-73
2023/07/04 05:38:28;;;;;;;18.55;8.63;;;;;;;22.27;55.71;93930.22;5051013;28;20937;-73
2023/07/04 05:40:53;;;;;;;14.90;9.25;;;;;;;22.37;56.29;93944.94;5052188;28;20025;-73
2023/07/04 05:43:18;;;;;;;19.38;8.45;;;;;;;22.37;55.58;93944.94;5052137;28;20035;-72
2023/07/04 05:45:47;;;;;;;15.60;8.73;;;;;;;22.32;55.53;93924.41;5052229;28;20037;-72
2023/07/04 05:48:13;;;;;;;12.90;8.10;;;;;;;22.53;54.96;93926.38;5052485;28;20621;-72
2023/07/04 05:50:38;;;;;;;14.93;7.85;;;;;;;22.59;53.92;93941.09;5052299;28;20056;-72
2023/07/04 05:53:03;;;;;;;21.13;7.57;;;;;;;22.55;54.67;93921.34;5052382;28;20519;-73
2023/07/04 05:55:29;;;;;;;14.43;7.05;;;;;;;22.73;54.76;93924.84;5053927;28;20024;-73
2023/07/04 05:57:54;;;;;;;10.15;6.70;;;;;;;22.83;53.82;93932.19;5053282;28;20692;-74
2023/07/04 06:00:20;;;;;;;11.52;7.65;;;;;;;22.90;53.97;93931.44;5053125;28;20043;-72
2023/07/04 06:02:48;;;;;;;9.52;7.22;;;;;;;23.04;53.20;93934.94;5052836;28;20033;-72
2023/07/04 06:05:13;;;;;;;15.05;7.97;;;;;;;23.09;53.73;93920.97;5052394;28;20044;-72
2023/07/04 06:07:39;;;;;;;15.27;7.10;;;;;;;23.10;53.18;93916.31;5051383;28;20092;-73
2023/07/04 06:10:05;;;;;;;16.17;6.90;;;;;;;23.17;52.11;93916.31;5053491;28;20043;-73
2023/07/04 06:12:30;;;;;;;9.30;5.82;;;;;;;23.25;53.63;93923.28;5051507;28;20028;-72
2023/07/04 06:14:56;;;;;;;7.65;5.63;;;;;;;23.37;53.15;93924.78;5054603;28;20060;-74
2023/07/04 06:17:21;;;;;;;8.65;5.25;;;;;;;23.42;52.31;93927.88;5051408;28;20044;-72
2023/07/04 06:19:49;;;;;;;10.23;5.82;;;;;;;23.22;52.67;93902.34;5052244;28;20115;-72
2023/07/04 06:22:15;;;;;;;10.90;6.90;;;;;;;23.49;52.34;93927.13;5052060;28;20025;-72
2023/07/04 06:24:42;;;;;;;8.20;5.78;;;;;;;23.66;52.26;93937.16;5053328;28;20055;-71
2023/07/04 06:27:07;;;;;;;7.38;5.75;;;;;;;23.72;50.85;93930.16;5050675;28;20257;-73
2023/07/04 06:29:33;;;;;;;8.98;5.13;;;;;;;23.73;51.48;93911.91;5052286;28;20526;-73
2023/07/04 06:31:58;;;;;;;8.10;5.50;;;;;;;23.84;51.00;93927.00;5051655;28;20509;-73
2023/07/04 06:34:24;;;;;;;12.30;5.70;;;;;;;23.85;50.52;93928.56;5054450;28;20044;-73
2023/07/04 06:36:49;;;;;;;9.95;5.68;;;;;;;23.72;50.33;93913.84;5050865;28;20028;-72
2023/07/04 06:39:15;;;;;;;10.00;6.05;;;;;;;23.62;49.79;93920.09;5052548;28;20040;-73
2023/07/04 06:41:40;;;;;;;9.95;5.28;;;;;;;23.74;50.56;93930.53;5053008;28;20135;-75
2023/07/04 06:44:05;;;;;;;10.13;6.53;;;;;;;23.73;51.39;93923.56;5051672;28;20048;-73
2023/07/04 06:46:31;;;;;;;7.55;5.57;;;;;;;23.81;50.97;93924.28;5052727;28;20033;-73
2023/07/04 06:48:56;;;;;;;9.88;5.25;;;;;;;23.88;50.34;93927.00;5051836;28;20769;-72
2023/07/04 06:51:23;;;;;;;7.93;5.15;;;;;;;24.06;49.90;93937.75;5051375;28;20086;-72
2023/07/04 06:53:50;;;;;;;8.52;5.13;;;;;;;24.04;48.83;93930.03;5051042;28;20048;-73
2023/07/04 06:56:22;;;;;;;13.57;5.60;;;;;;;24.11;48.95;93942.78;5052566;28;20033;-74
2023/07/04 06:58:50;;;;;;;11.18;5.47;;;;;;;24.02;48.89;93926.91;5052249;28;20028;-74
2023/07/04 07:01:17;;;;;;;9.75;6.03;;;;;;;24.13;49.88;93935.06;5053259;28;20028;-74
2023/07/04 07:03:43;;;;;;;7.57;5.75;;;;;;;24.19;49.54;93933.47;5051379;28;20116;-72
2023/07/04 07:06:10;;;;;;;6.82;6.10;;;;;;;24.10;49.15;93919.53;5051886;28;20383;-73
2023/07/04 07:08:37;;;;;;;10.35;6.60;;;;;;;24.21;48.57;93933.84;5065616;28;20033;-74
2023/07/04 07:11:07;;;;;;;8.32;5.82;;;;;;;24.17;48.29;93933.09;5052007;28;20126;-73
2023/07/04 07:13:32;;;;;;;12.95;6.70;;;;;;;24.24;47.84;93933.06;5051756;28;20103;-73
2023/07/04 07:16:19;;;;;;;8.35;5.65;;;;;;;24.23;48.53;93932.28;5050259;28;20069;-73
2023/07/04 07:18:46;;;;;;;7.78;5.90;;;;;;;24.29;48.10;93929.94;5051885;28;20131;-72
2023/07/04 07:21:14;;;;;;;9.38;6.43;;;;;;;24.29;48.59;93924.50;5051200;28;20459;-72
2023/07/04 07:23:40;;;;;;;11.65;6.00;;;;;;;24.40;48.50;93925.97;5052985;28;20037;-74
2023/07/04 07:26:08;;;;;;;23.25;6.70;;;;;;;24.51;48.40;93925.88;5052032;28;20067;-73
2023/07/04 07:28:39;;;;;;;9.38;6.05;;;;;;;24.54;48.00;93908.78;5050560;28;20013;-74
2023/07/04 07:31:10;;;;;;;11.13;7.63;;;;;;;24.65;47.42;93928.50;5051292;28;20045;-72
2023/07/04 07:33:37;;;;;;;9.75;8.13;;;;;;;24.75;46.88;93938.56;5050871;28;20036;-73
2023/07/04 07:36:18;;;;;;;11.02;7.18;;;;;;;24.77;47.67;93938.94;5052138;28;20043;-73
2023/07/04 07:38:44;;;;;;;11.18;6.45;;;;;;;24.73;48.33;93937.44;5050221;28;20143;-73
2023/07/04 07:41:10;;;;;;;13.25;7.18;;;;;;;24.64;47.25;93935.13;5051848;28;20062;-73
2023/07/04 07:43:38;;;;;;;10.45;7.38;;;;;;;24.31;47.43;93917.47;5051774;28;20100;-73
2023/07/04 07:46:09;;;;;;;12.65;8.20;;;;;;;24.20;47.17;93937.75;5051500;28;20029;-72
2023/07/04 07:48:35;;;;;;;8.68;7.15;;;;;;;24.27;47.84;93943.13;5050185;28;20043;-73
2023/07/04 07:51:00;;;;;;;11.40;7.55;;;;;;;24.35;47.45;93944.63;5051392;28;20711;-73
2023/07/04 07:53:25;;;;;;;11.90;6.75;;;;;;;24.42;48.07;93937.22;5050216;28;20156;-75
2023/07/04 07:55:51;;;;;;;10.35;7.70;;;;;;;24.41;48.30;93937.59;5052144;28;20400;-73
2023/07/04 07:58:16;;;;;;;9.05;7.20;;;;;;;24.58;47.23;93942.16;5043741;28;21144;-73
2023/07/04 08:00:42;;;;;;;12.25;7.93;;;;;;;24.66;48.70;93932.78;5051009;28;20060;-73
2023/07/04 08:03:07;;;;;;;9.65;7.22;;;;;;;24.53;48.69;93929.00;5051811;28;20029;-73
2023/07/04 08:05:40;;;;;;;13.50;8.18;;;;;;;24.70;48.97;93940.91;5053003;28;20117;-72
2023/07/04 08:08:06;;;;;;;11.15;8.77;;;;;;;24.49;47.85;93930.19;5055998;28;20028;-74
2023/07/04 08:10:35;;;;;;;10.38;7.25;;;;;;;24.52;47.31;93932.88;5053911;28;20085;-74
2023/07/04 08:13:01;;;;;;;10.13;6.60;;;;;;;24.70;47.26;93947.13;5055221;28;20098;-75
2023/07/04 08:15:26;;;;;;;11.43;7.55;;;;;;;24.67;47.32;93945.22;5054538;28;20041;-73
2023/07/04 08:17:52;;;;;;;10.15;7.50;;;;;;;24.53;47.30;93929.00;5055557;28;21091;-74
2023/07/04 08:20:17;;;;;;;11.68;7.07;;;;;;;24.58;47.84;93925.84;5053210;28;20064;-73
2023/07/04 08:22:42;;;;;;;13.02;8.10;;;;;;;24.59;48.06;93934.78;5053640;28;20522;-73
2023/07/04 08:25:08;;;;;;;9.55;6.80;;;;;;;24.66;48.13;93940.16;5057693;28;20036;-73
2023/07/04 08:27:33;;;;;;;14.05;7.43;;;;;;;24.65;48.65;93938.59;5053692;28;20028;-73
2023/07/04 08:29:59;;;;;;;12.15;6.18;;;;;;;24.50;47.91;93921.63;5054546;28;20059;-73
2023/07/04 08:32:24;;;;;;;12.25;7.28;;;;;;;24.38;47.42;93884.81;5053934;28;20140;-74
2023/07/04 08:34:49;;;;;;;10.68;6.53;;;;;;;24.63;48.11;93925.44;5055365;28;20491;-73
2023/07/04 08:37:15;;;;;;;8.40;6.60;;;;;;;24.74;48.09;93928.84;5052960;28;20021;-73
2023/07/04 08:39:46;;;;;;;8.98;7.53;;;;;;;24.72;46.92;93925.78;5052696;28;20047;-74
2023/07/04 08:42:15;;;;;;;11.50;8.07;;;;;;;24.65;47.60;93931.22;5054007;28;20048;-73
2023/07/04 08:44:46;;;;;;;8.98;7.47;;;;;;;24.53;47.40;93923.56;5053197;28;20043;-73
2023/07/04 08:47:14;;;;;;;10.43;7.63;;;;;;;24.70;47.77;93930.81;5055136;28;20040;-74
2023/07/04 08:49:58;;;;;;;10.23;7.38;;;;;;;24.71;47.62;93924.22;5054707;28;20028;-74
2023/07/04 08:52:52;;;;;;;12.02;7.65;;;;;;;24.82;47.58;93916.00;5055941;28;20036;-72
2023/07/04 08:55:19;;;;;;;11.60;7.27;;;;;;;24.79;46.98;93906.66;5049551;28;20071;-73
2023/07/04 08:58:00;;;;;;;10.75;7.75;;;;;;;24.77;47.57;93906.31;5053939;28;20637;-72
2023/07/04 09:00:28;;;;;;;11.02;7.43;;;;;;;25.01;48.29;93920.88;5055739;28;20040;-72
2023/07/04 09:03:02;;;;;;;11.50;7.13;;;;;;;25.11;47.42;93920.00;5053276;28;20916;-72
2023/07/04 09:05:49;;;;;;;11.57;7.10;;;;;;;25.06;46.94;93911.50;5055150;28;20747;-72
2023/07/04 09:08:56;;;;;;;9.60;7.18;;;;;;;25.13;47.50;93919.59;5049381;28;20378;-72
2023/07/04 09:11:22;;;;;;;6.80;5.63;;;;;;;24.91;47.50;93874.72;5039472;28;20052;-72
2023/07/04 09:13:54;;;;;;;10.30;6.82;;;;;;;25.10;47.48;93906.78;5053230;28;20103;-74
2023/07/04 09:16:31;;;;;;;10.32;6.25;;;;;;;25.08;47.65;93909.13;5053957;28;20052;-73
2023/07/04 09:19:00;;;;;;;10.85;6.13;;;;;;;25.07;46.95;93902.19;5052341;28;20404;-72
2023/07/04 09:21:28;;;;;;;10.40;7.53;;;;;;;25.14;47.39;93921.91;5053570;28;20159;-72
2023/07/04 09:23:58;;;;;;;12.15;7.10;;;;;;;25.10;46.85;93904.06;5054619;28;20033;-72
2023/07/04 09:26:26;;;;;;;10.25;7.50;;;;;;;25.09;47.61;93905.25;5054196;28;20102;-73
2023/07/04 09:28:55;;;;;;;12.45;6.65;;;;;;;25.10;47.44;93907.56;5053799;28;20055;-72
2023/07/04 09:31:29;;;;;;;10.45;7.35;;;;;;;25.20;45.48;93898.53;5054645;28;20527;-73
2023/07/04 09:33:55;;;;;;;10.50;7.20;;;;;;;25.32;46.09;93905.47;5052850;28;20036;-71
2023/07/04 09:36:25;;;;;;;9.05;7.40;;;;;;;25.11;46.46;93892.03;5053706;28;20037;-75
2023/07/04 09:38:54;;;;;;;11.20;6.93;;;;;;;25.39;46.96;93908.09;5054076;28;20041;-72
2023/07/04 09:41:25;;;;;;;9.20;7.15;;;;;;;25.35;47.36;93891.03;5052855;28;20062;-72
2023/07/04 09:43:52;;;;;;;13.18;7.68;;;;;;;25.48;45.26;93910.31;5053706;28;20080;-74
2023/07/04 09:46:25;;;;;;;12.43;8.15;;;;;;;25.61;47.05;93901.25;5053151;28;20031;-72
2023/07/04 09:48:52;;;;;;;14.68;7.60;;;;;;;25.35;44.63;93891.03;5052855;28;20560;-73
2023/07/04 09:51:25;;;;;;;10.60;8.18;;;;;;;25.40;45.74;93898.75;5052464;28;21057;-72
2023/07/04 09:54:13;;;;;;;11.20;7.47;;;;;;;25.21;45.86;93870.16;5053153;28;20040;-72
2023/07/04 09:56:39;;;;;;;10.80;7.15;;;;;;;25.31;45.42;93890.31;5057148;28;20041;-72
2023/07/04 09:59:14;;;;;;;9.98;7.28;;;;;;;25.46;47.39;93894.41;5052699;28;20760;-72
2023/07/04 10:01:41;;;;;;;;;;;;;;;25.62;47.62;93894.59;5052543;28;20082;-72
2023/07/04 10:04:08;;;;;;;10.93;7.90;;;;;;;25.53;46.11;93869.81;5068062;28;19917;-74
2023/07/04 10:06:36;;;;;;;8.75;7.65;;;;;;;25.63;44.66;93890.72;5051753;28;20376;-72
2023/07/04 10:09:11;;;;;;;10.00;7.57;;;;;;;25.57;44.22;93886.88;5051341;28;20747;-72
2023/07/04 10:11:39;;;;;;;8.90;7.75;;;;;;;25.59;44.56;93894.66;5053082;28;20041;-72
2023/07/04 10:14:11;;;;;;;11.52;6.63;;;;;;;25.49;44.57;93873.75;5051280;28;20040;-72
2023/07/04 10:16:45;;;;;;;10.50;7.78;;;;;;;25.59;44.25;93887.25;5053751;28;20051;-73
2023/07/04 10:19:16;;;;;;;9.67;7.20;;;;;;;25.57;44.56;93883.38;5053315;28;20044;-72
2023/07/04 10:21:51;;;;;;;11.95;6.93;;;;;;;25.54;45.22;93879.53;5051984;28;20234;-72
2023/07/04 10:24:22;;;;;;;9.02;7.20;;;;;;;25.70;48.62;93884.41;5053180;28;20028;-72
2023/07/04 10:26:51;;;;;;;9.27;7.40;;;;;;;25.74;45.46;93874.25;5053166;28;20098;-72
2023/07/04 10:29:25;;;;;;;12.35;7.65;;;;;;;25.70;44.84;93878.97;5048935;28;20144;-73
2023/07/04 10:31:51;;;;;;;9.30;7.23;;;;;;;25.73;44.34;93874.66;5052727;28;20480;-73
2023/07/04 10:34:20;;;;;;;8.95;7.28;;;;;;;25.76;44.68;93862.94;5052460;28;20040;-73
2023/07/04 10:36:49;;;;;;;9.38;7.63;;;;;;;25.82;46.52;93855.84;5051229;28;20029;-73
2023/07/04 10:39:16;;;;;;;12.25;8.25;;;;;;;25.81;45.24;93882.31;5052432;28;20040;-71
2023/07/04 10:41:55;;;;;;;9.57;8.13;;;;;;;25.78;45.45;93864.06;5050346;28;20041;-74
2023/07/04 10:44:26;;;;;;;9.98;8.82;;;;;;;25.77;45.24;93867.19;5051216;28;20458;-72
2023/07/04 10:47:01;;;;;;;10.48;7.65;;;;;;;25.85;45.27;93864.00;5052172;28;20028;-72
2023/07/04 10:49:31;;;;;;;12.02;7.95;;;;;;;26.01;45.83;93871.56;5053098;28;20118;-72
2023/07/04 10:52:07;;;;;;;11.10;7.47;;;;;;;26.16;46.90;93867.47;5052200;28;21960;-72
2023/07/04 10:54:33;;;;;;;14.40;7.78;;;;;;;26.15;43.96;93859.72;5051584;28;20742;-74
2023/07/04 10:57:39;;;;;;;9.70;7.20;;;;;;;26.23;44.38;93856.50;5050866;28;20511;-72
2023/07/04 11:00:12;;;;;;;11.43;7.53;;;;;;;26.20;43.40;93851.09;5050775;28;20500;-72
2023/07/04 11:02:43;;;;;;;13.23;7.45;;;;;;;26.21;43.52;93850.66;5048170;28;20828;-71
2023/07/04 11:05:14;;;;;;;8.80;7.15;;;;;;;26.18;42.88;93854.22;5051003;28;20828;-73
2023/07/04 11:07:42;;;;;;;7.80;7.00;;;;;;;26.26;44.71;93855.66;5051168;28;20788;-73
2023/07/04 11:10:11;;;;;;;8.80;6.30;;;;;;;26.20;42.73;93851.09;5051923;28;20068;-73
2023/07/04 11:12:38;;;;;;;22.00;8.35;;;;;;;26.22;43.42;93849.50;5051397;28;20037;-73
2023/07/04 11:15:36;;;;;;;9.57;7.78;;;;;;;26.24;42.50;93849.84;5053452;28;20475;-74
2023/07/04 11:18:01;;;;;;;11.77;8.00;;;;;;;26.32;43.04;93840.38;5049732;28;20044;-74
2023/07/04 11:20:51;;;;;;;12.23;7.80;;;;;;;26.48;45.84;93845.25;5052059;28;20698;-71
2023/07/04 11:23:19;;;;;;;8.23;6.88;;;;;;;26.49;42.46;93836.66;5054475;28;20075;-72
2023/07/04 11:25:44;;;;;;;9.23;7.53;;;;;;;26.59;43.09;93834.94;5051376;28;20128;-72
2023/07/04 11:28:34;;;;;;;7.60;6.80;;;;;;;26.62;42.72;93823.19;5052770;28;20023;-73
2023/07/04 11:31:11;;;;;;;11.80;7.40;;;;;;;26.70;43.55;93823.84;5051131;28;20160;-74
2023/07/04 11:33:38;;;;;;;9.38;7.55;;;;;;;26.71;42.64;93826.16;5050080;28;20324;-72
2023/07/04 11:36:24;;;;;;;9.95;7.88;;;;;;;26.70;42.46;93807.47;5051724;28;20037;-72
2023/07/04 11:38:52;;;;;;;10.20;8.02;;;;;;;26.74;43.04;93817.13;5051044;28;20036;-72